createdAt,value
2019-02-17T01:23:33.066Z,73.63
2019-02-17T01:26:18.570Z,74.41
2019-02-17T01:29:02.414Z,73.44
2019-02-17T01:32:01.227Z,72.13
2019-02-17T01:34:35.469Z,72.47
2019-02-17T01:37:21.619Z,72.44
2019-02-17T01:40:02.034Z,72.66
2019-02-17T01:42:41.574Z,73.29
2019-02-17T01:45:20.850Z,74.15
2019-02-17T01:47:58.355Z,73.88
2019-02-17T01:50:34.752Z,74.96
2019-02-17T01:53:17.899Z,74.88
2019-02-17T01:55:54.058Z,74.04
2019-02-17T01:58:29.475Z,73.64
2019-02-17T02:01:27.528Z,73.63
2019-02-17T02:04:04.856Z,73.72
2019-02-17T02:06:39.651Z,73.43
2019-02-17T02:09:17.258Z,73.68
2019-02-17T02:11:52.343Z,73.07
2019-02-17T02:14:31.110Z,73.50
2019-02-17T02:17:10.003Z,73.62
2019-02-17T02:19:39.179Z,73.70
2019-02-17T02:22:08.148Z,73.97
2019-02-17T02:24:37.094Z,74.48
2019-02-17T02:27:05.765Z,74.86
2019-02-17T02:29:40.989Z,74.86
2019-02-17T02:32:07.434Z,74.68
2019-02-17T02:34:38.038Z,74.81
2019-02-17T02:37:07.126Z,74.41
2019-02-17T02:39:35.926Z,74.41
2019-02-17T02:42:07.913Z,73.89
2019-02-17T02:44:36.862Z,73.57
2019-02-17T02:47:05.988Z,73.93
2019-02-17T02:49:35.022Z,73.83
2019-02-17T02:52:03.968Z,73.59
2019-02-17T02:54:33.077Z,73.47
2019-02-17T02:57:02.079Z,73.44
2019-02-17T02:59:30.934Z,73.73
2019-02-17T03:01:59.941Z,73.52
2019-02-17T03:04:28.953Z,74.01
2019-02-17T03:07:00.342Z,74.01
2019-02-17T03:09:29.608Z,74.35
2019-02-17T03:11:59.475Z,74.86
2019-02-17T03:14:31.777Z,74.36
2019-02-17T03:17:00.986Z,74.36
2019-02-17T03:19:29.817Z,73.90
2019-02-17T03:21:58.658Z,74.81
2019-02-17T03:24:27.367Z,75.45
2019-02-17T03:26:56.403Z,75.45
2019-02-17T03:29:25.666Z,75.33
2019-02-17T03:31:54.633Z,74.76
2019-02-17T03:34:23.850Z,74.75
2019-02-17T03:36:53.067Z,74.87
2019-02-17T03:39:22.046Z,74.97
2019-02-17T03:41:56.136Z,75.02
2019-02-17T03:44:24.536Z,75.08
2019-02-17T03:46:53.528Z,74.86
2019-02-17T03:49:22.460Z,74.71
2019-02-17T03:51:51.478Z,75.04
2019-02-17T03:54:20.389Z,74.68
2019-02-17T03:56:49.383Z,75.43
2019-02-17T03:59:18.316Z,75.19
2019-02-17T04:01:47.131Z,75.16
2019-02-17T04:04:16.165Z,75.28
2019-02-17T04:06:45.188Z,75.48
2019-02-17T04:09:14.105Z,75.14
2019-02-17T04:11:42.790Z,75.72
2019-02-17T04:14:11.579Z,75.71
2019-02-17T04:16:40.533Z,75.83
2019-02-17T04:19:09.499Z,76.19
2019-02-17T04:21:38.467Z,75.87
2019-02-17T04:24:07.894Z,75.53
2019-02-17T04:26:36.971Z,75.59
2019-02-17T04:29:05.664Z,76.33
2019-02-17T04:31:34.613Z,76.45
2019-02-17T04:34:03.592Z,76.46
2019-02-17T04:36:32.339Z,75.85
2019-02-17T04:39:00.999Z,76.32
2019-02-17T04:41:30.031Z,75.94
2019-02-17T04:43:59.073Z,75.85
2019-02-17T04:46:28.328Z,76.44
2019-02-17T04:48:57.071Z,76.27
2019-02-17T04:51:26.078Z,76.27
2019-02-17T04:53:55.662Z,76.95
2019-02-17T04:56:24.961Z,76.87
2019-02-17T04:58:54.639Z,76.79
2019-02-17T05:01:23.941Z,75.72
2019-02-17T05:03:52.984Z,76.54
2019-02-17T05:06:21.671Z,76.95
2019-02-17T05:08:50.413Z,77.18
2019-02-17T05:11:19.478Z,76.58
2019-02-17T05:13:48.468Z,77.01
2019-02-17T05:16:17.519Z,76.37
2019-02-17T05:18:46.364Z,76.76
2019-02-17T05:21:15.599Z,76.71
2019-02-17T05:23:44.815Z,75.99
2019-02-17T05:26:14.724Z,75.80
2019-02-17T05:28:43.683Z,76.13
2019-02-17T05:31:12.641Z,75.09
2019-02-17T05:33:44.736Z,75.23
2019-02-17T05:36:13.483Z,75.87
2019-02-17T05:38:42.456Z,76.31
2019-02-17T05:41:11.188Z,75.84
2019-02-17T05:43:39.886Z,76.05
2019-02-17T05:46:09.203Z,76.43
2019-02-17T05:48:38.498Z,76.13
2019-02-17T05:51:08.828Z,76.28
2019-02-17T05:53:37.611Z,75.55
2019-02-17T05:56:06.660Z,75.89
2019-02-17T05:58:35.660Z,76.42
2019-02-17T06:01:07.266Z,76.37
2019-02-17T06:03:35.480Z,76.77
2019-02-17T06:06:04.792Z,76.77
2019-02-17T06:08:33.800Z,76.96
2019-02-17T06:11:03.087Z,76.73
2019-02-17T06:13:32.122Z,76.94
2019-02-17T06:16:01.401Z,77.10
2019-02-17T06:18:30.883Z,77.11
2019-02-17T06:21:00.097Z,76.62
2019-02-17T06:23:29.608Z,76.08
2019-02-17T06:26:00.796Z,76.04
2019-02-17T06:28:29.493Z,77.03
2019-02-17T06:30:58.778Z,77.15
2019-02-17T06:33:27.870Z,77.12
2019-02-17T06:35:57.341Z,77.65
2019-02-17T06:38:26.855Z,77.12
2019-02-17T06:40:56.123Z,77.79
2019-02-17T06:43:25.342Z,77.62
2019-02-17T06:45:55.418Z,77.75
2019-02-17T06:48:25.952Z,77.09
2019-02-17T06:50:54.955Z,77.34
2019-02-17T06:53:23.671Z,77.67
2019-02-17T06:56:00.523Z,77.86
2019-02-17T06:58:29.234Z,78.02
2019-02-17T07:01:00.243Z,78.00
2019-02-17T07:03:29.443Z,77.91
2019-02-17T07:06:08.801Z,77.85
2019-02-17T07:08:39.511Z,78.04
2019-02-17T07:11:08.517Z,78.45
2019-02-17T07:13:37.839Z,77.81
2019-02-17T07:16:06.912Z,77.03
2019-02-17T07:18:35.716Z,77.40
2019-02-17T07:21:04.535Z,77.91
2019-02-17T07:23:34.067Z,78.04
2019-02-17T07:26:03.449Z,77.70
2019-02-17T07:28:32.350Z,78.26
2019-02-17T07:31:01.582Z,77.64
2019-02-17T07:33:30.525Z,77.55
2019-02-17T07:35:59.229Z,78.06
2019-02-17T07:38:28.182Z,77.80
2019-02-17T07:40:56.925Z,77.44
2019-02-17T07:43:26.266Z,76.85
2019-02-17T07:45:55.728Z,76.98
2019-02-17T07:48:24.991Z,77.62
2019-02-17T07:50:56.738Z,78.00
2019-02-17T07:53:25.502Z,78.23
2019-02-17T07:55:57.120Z,78.37
2019-02-17T07:58:26.290Z,78.21
2019-02-17T08:00:55.707Z,78.40
2019-02-17T08:03:24.658Z,78.07
2019-02-17T08:05:53.454Z,77.95
2019-02-17T08:08:22.144Z,77.69
2019-02-17T08:10:51.178Z,77.28
2019-02-17T08:13:21.560Z,77.60
2019-02-17T08:15:50.250Z,77.75
2019-02-17T08:18:18.991Z,77.80
2019-02-17T08:20:48.309Z,78.01
2019-02-17T08:23:17.703Z,77.41
2019-02-17T08:25:46.848Z,77.57
2019-02-17T08:28:15.813Z,77.59
2019-02-17T08:30:44.743Z,77.60
2019-02-17T08:33:14.012Z,77.45
2019-02-17T08:35:43.196Z,77.33
2019-02-17T08:38:12.471Z,77.29
2019-02-17T08:40:41.447Z,76.89
2019-02-17T08:43:10.361Z,76.47
2019-02-17T08:45:39.505Z,76.92
2019-02-17T08:48:09.257Z,77.42
2019-02-17T08:50:40.247Z,77.27
2019-02-17T08:53:09.781Z,77.44
2019-02-17T08:55:39.045Z,77.94
2019-02-17T08:58:07.976Z,78.12
2019-02-17T09:00:52.891Z,77.78
2019-02-17T09:03:27.661Z,77.93
2019-02-17T09:06:04.423Z,77.39
2019-02-17T09:09:03.428Z,77.35
2019-02-17T09:11:37.433Z,76.81
2019-02-17T09:14:18.521Z,76.95
2019-02-17T09:16:59.624Z,77.11
2019-02-17T09:19:36.661Z,77.26
2019-02-17T09:22:30.082Z,76.65
2019-02-17T09:24:59.018Z,77.00
2019-02-17T09:27:28.501Z,77.00
2019-02-17T09:29:59.970Z,76.57
2019-02-17T09:32:28.899Z,76.27
2019-02-17T09:34:58.294Z,76.12
2019-02-17T09:37:27.459Z,76.43
2019-02-17T09:39:56.807Z,76.16
2019-02-17T09:42:25.914Z,76.70
2019-02-17T09:44:55.027Z,76.42
2019-02-17T09:47:28.741Z,75.54
2019-02-17T09:50:04.452Z,76.05
2019-02-17T09:52:36.501Z,75.53
2019-02-17T09:55:06.056Z,74.84
2019-02-17T09:57:39.837Z,74.94
2019-02-17T10:00:06.574Z,74.36
2019-02-17T10:02:36.315Z,74.20
2019-02-17T10:05:09.056Z,74.35
2019-02-17T10:07:38.857Z,74.08
2019-02-17T10:10:20.727Z,74.20
2019-02-17T10:12:49.817Z,74.66
2019-02-17T10:15:21.823Z,73.64
2019-02-17T10:17:50.507Z,73.43
2019-02-17T10:20:19.520Z,73.98
2019-02-17T10:22:50.129Z,73.24
2019-02-17T10:25:19.071Z,72.77
2019-02-17T10:27:48.312Z,72.78
2019-02-17T10:30:17.082Z,72.85
2019-02-17T10:32:46.070Z,72.56
2019-02-17T10:35:14.854Z,72.97
2019-02-17T10:37:43.793Z,72.55
2019-02-17T10:40:13.608Z,72.98
2019-02-17T10:42:42.271Z,72.95
2019-02-17T10:45:11.502Z,72.96
2019-02-17T10:47:40.194Z,73.14
2019-02-17T10:50:09.703Z,72.81
2019-02-17T10:52:38.468Z,72.84
2019-02-17T10:55:07.819Z,73.04
2019-02-17T10:57:36.828Z,73.01
2019-02-17T11:00:07.883Z,72.59
2019-02-17T11:02:46.379Z,72.89
2019-02-17T11:05:07.863Z,72.34
2019-02-17T11:07:36.786Z,72.88
2019-02-17T11:10:08.338Z,73.03
2019-02-17T11:12:37.281Z,71.76
2019-02-17T11:15:09.665Z,72.96
2019-02-17T11:17:38.700Z,73.09
2019-02-17T11:20:10.208Z,72.10
2019-02-17T11:22:38.882Z,71.38
2019-02-17T11:25:07.877Z,70.88
2019-02-17T11:27:36.832Z,70.83
2019-02-17T11:30:06.788Z,71.77
2019-02-17T11:32:35.821Z,71.76
2019-02-17T11:35:05.287Z,71.67
2019-02-17T11:37:34.197Z,71.01
2019-02-17T11:40:02.965Z,71.09
2019-02-17T11:42:31.661Z,71.46
2019-02-17T11:45:00.965Z,71.06
2019-02-17T11:47:30.123Z,71.14
2019-02-17T11:49:58.777Z,70.89
2019-02-17T11:52:27.408Z,70.71
2019-02-17T11:54:56.602Z,70.67
2019-02-17T11:57:25.372Z,70.74
2019-02-17T11:59:54.286Z,70.29
2019-02-17T12:02:25.331Z,68.71
2019-02-17T12:04:53.564Z,69.44
2019-02-17T12:07:22.475Z,69.12
2019-02-17T12:09:51.353Z,68.29
2019-02-17T12:12:20.297Z,68.98
2019-02-17T12:14:49.222Z,67.92
2019-02-17T12:17:17.916Z,68.01
2019-02-17T12:19:46.576Z,67.96
2019-02-17T12:22:20.410Z,67.94
2019-02-17T12:25:14.903Z,68.50
2019-02-17T12:28:01.633Z,67.97
2019-02-17T12:30:30.579Z,68.17
2019-02-17T12:32:59.800Z,67.74
2019-02-17T12:35:28.769Z,68.44
2019-02-17T12:37:57.650Z,68.11
2019-02-17T12:40:26.793Z,68.44
2019-02-17T12:42:55.481Z,67.96
2019-02-17T12:45:24.478Z,67.91
2019-02-17T12:47:57.888Z,68.70
2019-02-17T12:50:23.797Z,67.91
2019-02-17T12:52:52.944Z,66.62
2019-02-17T12:55:21.865Z,66.88
2019-02-17T12:57:50.802Z,65.68
2019-02-17T13:00:19.544Z,66.03
2019-02-17T13:02:48.477Z,65.05
2019-02-17T13:05:17.666Z,65.40
2019-02-17T13:07:46.585Z,65.53
2019-02-17T13:10:15.537Z,63.81
2019-02-17T13:12:44.471Z,62.32
2019-02-17T13:15:13.496Z,63.48
2019-02-17T13:17:42.502Z,62.79
2019-02-17T13:20:12.791Z,61.40
2019-02-17T13:22:41.476Z,62.04
2019-02-17T13:25:10.925Z,61.07
2019-02-17T13:27:39.844Z,60.14
2019-02-17T13:30:12.105Z,61.12
2019-02-17T13:32:41.977Z,61.34
2019-02-17T13:35:11.437Z,60.89
2019-02-17T13:37:40.152Z,59.66
2019-02-17T13:40:10.197Z,58.59
2019-02-17T13:42:39.130Z,57.64
2019-02-17T13:45:09.375Z,57.75
2019-02-17T13:47:38.600Z,59.14
2019-02-17T13:50:09.236Z,60.73
2019-02-17T13:52:42.177Z,61.56
2019-02-17T13:55:20.692Z,63.95
2019-02-17T13:57:52.279Z,64.70
2019-02-17T14:00:20.539Z,63.84
2019-02-17T14:02:49.307Z,61.81
2019-02-17T14:05:18.248Z,60.16
2019-02-17T14:07:46.974Z,60.52
2019-02-17T14:10:15.974Z,60.55
2019-02-17T14:12:44.656Z,60.91
2019-02-17T14:15:14.141Z,60.89
2019-02-17T14:17:43.362Z,60.53
2019-02-17T14:20:12.322Z,60.38
2019-02-17T14:22:41.059Z,58.82
2019-02-17T14:25:11.065Z,59.07
2019-02-17T14:27:40.419Z,60.45
2019-02-17T14:30:10.634Z,61.49
2019-02-17T14:32:39.787Z,61.36
2019-02-17T14:35:08.776Z,61.27
2019-02-17T14:37:37.952Z,62.43
2019-02-17T14:40:06.855Z,61.85
2019-02-17T14:42:35.513Z,61.34
2019-02-17T14:45:04.418Z,60.80
2019-02-17T14:47:36.105Z,61.69
2019-02-17T14:50:05.296Z,62.52
2019-02-17T14:52:34.200Z,63.02
2019-02-17T14:55:02.871Z,63.00
2019-02-17T14:57:32.286Z,62.72
2019-02-17T15:00:00.990Z,62.56
2019-02-17T15:02:30.237Z,63.02
2019-02-17T15:04:59.145Z,63.05
2019-02-17T15:07:28.078Z,63.44
2019-02-17T15:09:56.738Z,63.13
2019-02-17T15:12:25.919Z,62.58
2019-02-17T15:14:54.833Z,63.07
2019-02-17T15:17:24.015Z,63.22
2019-02-17T15:19:52.934Z,63.74
2019-02-17T15:22:22.093Z,63.15
2019-02-17T15:24:51.280Z,63.43
2019-02-17T15:27:19.951Z,63.83
2019-02-17T15:29:49.116Z,64.11
2019-02-17T15:32:18.283Z,64.95
2019-02-17T15:34:47.074Z,65.15
2019-02-17T15:37:16.011Z,65.11
2019-02-17T15:39:44.662Z,66.00
2019-02-17T15:42:13.570Z,66.66
2019-02-17T15:44:44.333Z,66.37
2019-02-17T15:47:12.961Z,66.66
2019-02-17T15:49:41.642Z,67.06
2019-02-17T15:52:10.571Z,66.79
2019-02-17T15:54:39.483Z,67.71
2019-02-17T15:57:08.641Z,68.34
2019-02-17T15:59:37.679Z,69.40
2019-02-17T16:02:06.571Z,69.77
2019-02-17T16:04:35.728Z,70.50
2019-02-17T16:07:04.767Z,70.70
2019-02-17T16:09:33.664Z,70.95
2019-02-17T16:12:02.601Z,71.62
2019-02-17T16:14:31.998Z,72.78
2019-02-17T16:17:01.144Z,73.34
2019-02-17T16:19:30.373Z,73.67
2019-02-17T16:21:59.551Z,74.20
2019-02-17T16:24:28.755Z,74.66
2019-02-17T16:26:57.698Z,74.70
2019-02-17T16:29:26.615Z,75.11
2019-02-17T16:31:55.528Z,76.14
2019-02-17T16:34:24.698Z,76.46
2019-02-17T16:36:54.004Z,76.68
2019-02-17T16:39:22.892Z,76.82
2019-02-17T16:41:51.807Z,76.61
2019-02-17T16:44:20.483Z,76.91
2019-02-17T16:46:49.176Z,77.18
2019-02-17T16:49:17.823Z,77.10
2019-02-17T16:51:46.744Z,77.07
2019-02-17T16:54:15.899Z,77.42
2019-02-17T16:56:44.796Z,77.61
2019-02-17T16:59:13.757Z,77.33
2019-02-17T17:01:42.656Z,77.31
2019-02-17T17:04:11.855Z,77.51
2019-02-17T17:06:40.552Z,77.51
2019-02-17T17:09:09.814Z,77.27
2019-02-17T17:11:38.497Z,78.01
2019-02-17T17:14:09.034Z,78.22
2019-02-17T17:16:38.533Z,78.59
2019-02-17T17:19:07.695Z,78.82
2019-02-17T17:21:36.602Z,79.03
2019-02-17T17:24:05.335Z,78.80
2019-02-17T17:26:34.027Z,78.67
2019-02-17T17:29:02.929Z,78.50
2019-02-17T17:31:31.821Z,78.66
2019-02-17T17:34:00.475Z,78.66
2019-02-17T17:36:29.662Z,78.99
2019-02-17T17:38:58.802Z,79.08
2019-02-17T17:41:27.439Z,79.23
2019-02-17T17:43:56.346Z,79.24
2019-02-17T17:46:25.001Z,79.57
2019-02-17T17:48:53.923Z,80.14
2019-02-17T17:51:22.648Z,80.50
2019-02-17T17:53:52.458Z,80.39
2019-02-17T17:56:21.351Z,80.62
2019-02-17T17:58:50.257Z,81.18
2019-02-17T18:01:18.920Z,81.18
2019-02-17T18:03:48.053Z,81.28
2019-02-17T18:06:17.020Z,81.25
2019-02-17T18:08:45.939Z,81.36
2019-02-17T18:11:15.103Z,81.74
2019-02-17T18:13:43.777Z,81.71
2019-02-17T18:16:13.738Z,81.95
2019-02-17T18:18:42.376Z,82.04
2019-02-17T18:21:11.258Z,81.91
2019-02-17T18:23:40.617Z,81.63
2019-02-17T18:26:10.070Z,81.53
2019-02-17T18:28:41.329Z,81.53
2019-02-17T18:31:10.227Z,81.39
2019-02-17T18:33:39.385Z,81.39
2019-02-17T18:36:08.358Z,81.66
2019-02-17T18:38:37.024Z,81.62
2019-02-17T18:41:05.739Z,81.78
2019-02-17T18:43:34.730Z,81.71
2019-02-17T18:46:03.382Z,81.71
2019-02-17T18:48:32.283Z,81.94
2019-02-17T18:51:00.922Z,82.04
2019-02-17T18:53:29.843Z,82.26
2019-02-17T18:55:58.720Z,82.35
2019-02-17T18:58:27.708Z,82.44
2019-02-17T19:00:57.112Z,82.50
2019-02-17T19:03:26.237Z,82.71
2019-02-17T19:05:55.445Z,82.69
2019-02-17T19:08:24.112Z,82.79
2019-02-17T19:10:53.281Z,82.95
2019-02-17T19:13:22.182Z,83.00
2019-02-17T19:15:53.633Z,83.03
2019-02-17T19:18:21.685Z,83.06
2019-02-17T19:20:50.592Z,83.09
2019-02-17T19:23:19.991Z,83.29
2019-02-17T19:25:48.888Z,83.24
2019-02-17T19:28:17.775Z,83.21
2019-02-17T19:30:46.933Z,83.36
2019-02-17T19:33:15.840Z,83.15
2019-02-17T19:35:44.540Z,83.35
2019-02-17T19:38:13.448Z,83.31
2019-02-17T19:40:42.091Z,83.32
2019-02-17T19:43:10.966Z,83.27
2019-02-17T19:45:39.710Z,83.35
2019-02-17T19:48:08.617Z,83.48
2019-02-17T19:50:37.504Z,83.66
2019-02-17T19:53:06.487Z,83.59
2019-02-17T19:55:35.145Z,83.86
2019-02-17T19:58:04.153Z,83.75
2019-02-17T20:00:33.046Z,83.89
2019-02-17T20:03:11.405Z,84.01
2019-02-17T20:05:51.582Z,84.17
2019-02-17T20:08:14.445Z,84.12
2019-02-17T20:10:43.717Z,84.38
2019-02-17T20:13:12.641Z,84.63
2019-02-17T20:15:41.264Z,84.58
2019-02-17T20:18:09.915Z,84.79
2019-02-17T20:20:38.898Z,84.77
2019-02-17T20:23:08.054Z,84.71
2019-02-17T20:25:38.467Z,84.80
2019-02-17T20:28:07.688Z,84.80
2019-02-17T20:30:36.585Z,84.84
2019-02-17T20:33:05.477Z,84.96
2019-02-17T20:35:34.354Z,84.92
2019-02-17T20:38:03.834Z,84.84
2019-02-17T20:40:32.527Z,84.84
2019-02-17T20:43:01.181Z,84.95
2019-02-17T20:45:30.384Z,84.95
2019-02-17T20:47:59.082Z,85.30
2019-02-17T20:50:27.992Z,85.30
2019-02-17T20:52:56.887Z,84.71
2019-02-17T20:55:26.818Z,85.23
2019-02-17T20:57:55.810Z,85.23
2019-02-17T21:00:27.204Z,85.81
2019-02-17T21:02:55.880Z,85.25
2019-02-17T21:05:25.078Z,85.25
2019-02-17T21:07:53.723Z,86.03
2019-02-17T21:10:22.710Z,85.96
2019-02-17T21:12:51.580Z,85.96
2019-02-17T21:15:21.369Z,86.10
2019-02-17T21:17:50.032Z,86.10
2019-02-17T21:20:19.781Z,86.76
2019-02-17T21:22:48.714Z,86.75
2019-02-17T21:25:17.338Z,86.75
2019-02-17T21:27:45.981Z,86.84
2019-02-17T21:30:16.550Z,86.84
2019-02-17T21:32:45.463Z,85.85
2019-02-17T21:35:14.491Z,85.85
2019-02-17T21:37:43.286Z,86.30
2019-02-17T21:40:12.030Z,86.30
2019-02-17T21:42:41.195Z,87.28
2019-02-17T21:45:10.786Z,87.28
2019-02-17T21:47:39.737Z,86.97
2019-02-17T21:50:09.702Z,86.95
2019-02-17T21:52:38.899Z,86.87
2019-02-17T21:55:07.990Z,86.84
2019-02-17T21:57:36.935Z,86.61
2019-02-17T22:00:06.205Z,86.48
2019-02-17T22:02:34.857Z,87.11
2019-02-17T22:05:03.625Z,85.50
2019-02-17T22:07:34.970Z,85.44
2019-02-17T22:10:03.150Z,85.69
2019-02-17T22:12:31.871Z,85.69
2019-02-17T22:15:00.849Z,86.08
2019-02-17T22:17:29.774Z,85.73
2019-02-17T22:19:58.935Z,85.73
2019-02-17T22:22:27.844Z,85.68
2019-02-17T22:24:56.981Z,86.22
2019-02-17T22:27:25.939Z,86.22
2019-02-17T22:29:54.866Z,85.63
2019-02-17T22:32:24.021Z,84.75
2019-02-17T22:34:52.940Z,84.96
2019-02-17T22:37:21.853Z,84.55
2019-02-17T22:39:50.844Z,84.55
2019-02-17T22:42:19.538Z,84.01
2019-02-17T22:44:48.258Z,83.83
2019-02-17T22:47:17.390Z,83.83
2019-02-17T22:49:46.294Z,83.66
2019-02-17T22:52:14.928Z,83.66
2019-02-17T22:54:43.580Z,83.28
2019-02-17T22:57:12.345Z,83.31
2019-02-17T22:59:40.994Z,82.64
2019-02-17T23:02:11.924Z,83.04
2019-02-17T23:04:40.322Z,83.04
2019-02-17T23:07:09.747Z,82.92
2019-02-17T23:09:38.981Z,82.31
2019-02-17T23:12:08.001Z,82.31
2019-02-17T23:14:37.161Z,82.76
2019-02-17T23:17:06.148Z,82.76
2019-02-17T23:19:35.386Z,82.77
2019-02-17T23:22:04.315Z,82.40
2019-02-17T23:24:33.017Z,82.40
2019-02-17T23:27:04.103Z,82.77
2019-02-17T23:29:32.800Z,83.09
2019-02-17T23:32:01.463Z,83.04
2019-02-17T23:34:30.372Z,83.04
2019-02-17T23:37:04.125Z,83.30
2019-02-17T23:39:29.739Z,83.25
2019-02-17T23:41:58.649Z,83.79
2019-02-17T23:44:27.569Z,84.00
2019-02-17T23:46:56.182Z,84.39
2019-02-17T23:49:25.101Z,83.78
2019-02-17T23:51:53.785Z,83.01
2019-02-17T23:54:22.455Z,83.12
2019-02-17T23:56:51.613Z,83.12
2019-02-17T23:59:20.755Z,82.88
